KORL/ORL METAR and TAF weather

Enter ICAO airport designator
Station Type Date Time Source
KORL METAR 2019/12/16 02:53 UTC NOAA

KORL 160253Z AUTO 06003KT 10SM CLR 17/14 A3019 RMK AO2 SLP227 T01670139 51006


Station Type Date Time Source
KORL Decoded METAR 2019/12/16 02:53 UTC NOAA

ORLANDO EXECUTIVE AIRPORT, FL, United States (KORL) 28-33N 081-20W 37M
Dec 15, 2019 - 09:53 PM EST / 2019.12.16 0253 UTC
Wind: from the ENE (060 degrees) at 3 MPH (3 KT):0
Visibility: 10 mile(s):0
Sky conditions: clear
Temperature: 62.1 F (16.7 C)
Dew Point: 57.0 F (13.9 C)
Relative Humidity: 83%
Pressure (altimeter): 30.19 in. Hg (1022 hPa)
Pressure tendency: 0.02 inches (0.6 hPa) higher than three hours ago
ob: KORL 160253Z AUTO 06003KT 10SM CLR 17/14 A3019 RMK AO2 SLP227 T01670139 51006
cycle: 3

Station Type Date Time Source
KORL TAF UTC NOAA

Error!

Example: see airport list